sensor_id;sensor_type;location;lat;lon;timestamp;temperature;humidity
42479;DHT22;28110;47.080;9.476;2023-02-15T00:01:50;7.60;96.20
42479;DHT22;28110;47.080;9.476;2023-02-15T00:04:18;7.70;95.80
42479;DHT22;28110;47.080;9.476;2023-02-15T00:06:44;7.70;96.00
42479;DHT22;28110;47.080;9.476;2023-02-15T00:09:10;7.60;95.80
42479;DHT22;28110;47.080;9.476;2023-02-15T00:11:36;7.60;95.80
42479;DHT22;28110;47.080;9.476;2023-02-15T00:16:35;7.60;95.70
42479;DHT22;28110;47.080;9.476;2023-02-15T00:19:01;7.50;96.40
42479;DHT22;28110;47.080;9.476;2023-02-15T00:21:28;7.40;96.40
42479;DHT22;28110;47.080;9.476;2023-02-15T00:23:55;7.30;97.30
42479;DHT22;28110;47.080;9.476;2023-02-15T00:26:21;7.10;97.60
42479;DHT22;28110;47.080;9.476;2023-02-15T00:28:46;7.00;97.80
42479;DHT22;28110;47.080;9.476;2023-02-15T00:31:12;6.90;98.00
42479;DHT22;28110;47.080;9.476;2023-02-15T00:33:38;6.90;97.90
42479;DHT22;28110;47.080;9.476;2023-02-15T00:36:06;6.80;97.70
42479;DHT22;28110;47.080;9.476;2023-02-15T00:38:33;6.90;97.00
42479;DHT22;28110;47.080;9.476;2023-02-15T00:41:00;7.00;96.20
42479;DHT22;28110;47.080;9.476;2023-02-15T00:43:27;7.30;95.60
42479;DHT22;28110;47.080;9.476;2023-02-15T00:45:54;7.20;96.30
42479;DHT22;28110;47.080;9.476;2023-02-15T00:48:20;7.20;96.50
42479;DHT22;28110;47.080;9.476;2023-02-15T00:50:48;7.10;96.50
42479;DHT22;28110;47.080;9.476;2023-02-15T00:53:14;7.10;96.40
42479;DHT22;28110;47.080;9.476;2023-02-15T00:55:39;6.90;96.80
42479;DHT22;28110;47.080;9.476;2023-02-15T00:58:06;6.80;96.20
42479;DHT22;28110;47.080;9.476;2023-02-15T01:00:32;7.00;95.00
42479;DHT22;28110;47.080;9.476;2023-02-15T01:02:58;7.40;93.60
42479;DHT22;28110;47.080;9.476;2023-02-15T01:05:23;7.60;93.20
42479;DHT22;28110;47.080;9.476;2023-02-15T01:07:49;7.60;93.20
42479;DHT22;28110;47.080;9.476;2023-02-15T01:10:14;7.60;93.10
42479;DHT22;28110;47.080;9.476;2023-02-15T01:12:40;7.40;93.40
42479;DHT22;28110;47.080;9.476;2023-02-15T01:15:06;7.30;93.30
42479;DHT22;28110;47.080;9.476;2023-02-15T01:17:31;7.30;93.40
42479;DHT22;28110;47.080;9.476;2023-02-15T01:19:57;7.30;93.30
42479;DHT22;28110;47.080;9.476;2023-02-15T01:22:22;7.30;93.70
42479;DHT22;28110;47.080;9.476;2023-02-15T01:24:51;7.30;92.70
42479;DHT22;28110;47.080;9.476;2023-02-15T01:27:17;7.30;93.20
42479;DHT22;28110;47.080;9.476;2023-02-15T01:29:42;7.30;93.20
42479;DHT22;28110;47.080;9.476;2023-02-15T01:32:08;7.20;93.70
42479;DHT22;28110;47.080;9.476;2023-02-15T01:34:33;7.10;93.40
42479;DHT22;28110;47.080;9.476;2023-02-15T01:36:59;7.10;93.60
42479;DHT22;28110;47.080;9.476;2023-02-15T01:39:25;7.10;93.70
42479;DHT22;28110;47.080;9.476;2023-02-15T01:41:50;7.00;93.80
42479;DHT22;28110;47.080;9.476;2023-02-15T01:47:10;6.80;94.10
42479;DHT22;28110;47.080;9.476;2023-02-15T01:49:37;6.80;93.60
42479;DHT22;28110;47.080;9.476;2023-02-15T01:52:07;6.90;93.80
42479;DHT22;28110;47.080;9.476;2023-02-15T01:54:34;6.80;93.50
42479;DHT22;28110;47.080;9.476;2023-02-15T01:57:07;6.80;93.50
42479;DHT22;28110;47.080;9.476;2023-02-15T01:59:35;6.90;93.90
42479;DHT22;28110;47.080;9.476;2023-02-15T02:02:04;6.90;93.70
42479;DHT22;28110;47.080;9.476;2023-02-15T02:04:49;6.50;96.40
42479;DHT22;28110;47.080;9.476;2023-02-15T02:07:16;5.80;99.00
42479;DHT22;28110;47.080;9.476;2023-02-15T02:09:42;5.30;99.90
42479;DHT22;28110;47.080;9.476;2023-02-15T02:12:09;4.90;99.90
42479;DHT22;28110;47.080;9.476;2023-02-15T02:14:36;4.60;99.90
42479;DHT22;28110;47.080;9.476;2023-02-15T02:31:18;2.90;99.90
42479;DHT22;28110;47.080;9.476;2023-02-15T02:37:04;2.10;99.90
42479;DHT22;28110;47.080;9.476;2023-02-15T02:39:54;1.70;99.90
42479;DHT22;28110;47.080;9.476;2023-02-15T02:42:40;1.50;99.90
42479;DHT22;28110;47.080;9.476;2023-02-15T02:45:10;1.30;99.90
42479;DHT22;28110;47.080;9.476;2023-02-15T02:47:49;1.10;99.90
42479;DHT22;28110;47.080;9.476;2023-02-15T02:50:21;0.90;99.90
42479;DHT22;28110;47.080;9.476;2023-02-15T02:52:49;0.80;99.90
42479;DHT22;28110;47.080;9.476;2023-02-15T02:55:23;0.50;99.90
42479;DHT22;28110;47.080;9.476;2023-02-15T02:57:56;0.40;99.90
42479;DHT22;28110;47.080;9.476;2023-02-15T03:00:25;0.30;99.90
42479;DHT22;28110;47.080;9.476;2023-02-15T03:02:56;0.20;99.90
42479;DHT22;28110;47.080;9.476;2023-02-15T03:05:25;0.20;99.90
42479;DHT22;28110;47.080;9.476;2023-02-15T03:07:53;0.20;99.90
42479;DHT22;28110;47.080;9.476;2023-02-15T03:10:23;0.10;99.90
42479;DHT22;28110;47.080;9.476;2023-02-15T03:12:49;0.00;99.90
42479;DHT22;28110;47.080;9.476;2023-02-15T03:15:25;-0.10;99.90
42479;DHT22;28110;47.080;9.476;2023-02-15T03:18:00;-0.10;99.90
42479;DHT22;28110;47.080;9.476;2023-02-15T03:20:33;-0.30;99.90
42479;DHT22;28110;47.080;9.476;2023-02-15T03:23:05;-0.40;99.90
42479;DHT22;28110;47.080;9.476;2023-02-15T03:25:38;-0.40;99.90
42479;DHT22;28110;47.080;9.476;2023-02-15T03:28:10;-0.50;99.90
42479;DHT22;28110;47.080;9.476;2023-02-15T03:30:40;-0.50;99.90
42479;DHT22;28110;47.080;9.476;2023-02-15T03:33:07;-0.60;99.90
42479;DHT22;28110;47.080;9.476;2023-02-15T03:35:52;-0.60;99.90
42479;DHT22;28110;47.080;9.476;2023-02-15T03:38:21;-0.60;99.90
42479;DHT22;28110;47.080;9.476;2023-02-15T03:40:50;-0.70;99.90
42479;DHT22;28110;47.080;9.476;2023-02-15T03:46:15;-0.90;99.90
42479;DHT22;28110;47.080;9.476;2023-02-15T03:48:46;-1.00;99.90
42479;DHT22;28110;47.080;9.476;2023-02-15T03:51:17;-1.00;99.90
42479;DHT22;28110;47.080;9.476;2023-02-15T03:54:20;-1.10;99.90
42479;DHT22;28110;47.080;9.476;2023-02-15T04:00:00;-1.10;99.90
42479;DHT22;28110;47.080;9.476;2023-02-15T04:03:11;-1.30;99.90
42479;DHT22;28110;47.080;9.476;2023-02-15T04:05:38;-1.30;99.90
42479;DHT22;28110;47.080;9.476;2023-02-15T04:08:04;-1.30;99.90
42479;DHT22;28110;47.080;9.476;2023-02-15T04:10:30;-1.40;99.90
42479;DHT22;28110;47.080;9.476;2023-02-15T04:13:13;-1.30;99.90
42479;DHT22;28110;47.080;9.476;2023-02-15T04:15:39;-1.30;99.90
42479;DHT22;28110;47.080;9.476;2023-02-15T04:18:23;-1.30;99.90
42479;DHT22;28110;47.080;9.476;2023-02-15T04:21:08;-1.30;99.90
42479;DHT22;28110;47.080;9.476;2023-02-15T04:23:52;-1.30;99.90
42479;DHT22;28110;47.080;9.476;2023-02-15T04:26:36;-1.40;99.90
42479;DHT22;28110;47.080;9.476;2023-02-15T04:29:01;-1.50;99.90
42479;DHT22;28110;47.080;9.476;2023-02-15T04:31:27;-1.50;99.90
42479;DHT22;28110;47.080;9.476;2023-02-15T04:33:52;-1.50;99.90
42479;DHT22;28110;47.080;9.476;2023-02-15T04:36:18;-1.50;99.90
42479;DHT22;28110;47.080;9.476;2023-02-15T04:38:43;-1.50;99.90
42479;DHT22;28110;47.080;9.476;2023-02-15T04:41:09;-1.50;99.90
42479;DHT22;28110;47.080;9.476;2023-02-15T04:43:36;-1.50;99.90
42479;DHT22;28110;47.080;9.476;2023-02-15T04:46:02;-1.50;99.90
42479;DHT22;28110;47.080;9.476;2023-02-15T04:48:27;-1.60;99.90
42479;DHT22;28110;47.080;9.476;2023-02-15T04:50:53;-1.60;99.90
42479;DHT22;28110;47.080;9.476;2023-02-15T04:53:18;-1.60;99.90
42479;DHT22;28110;47.080;9.476;2023-02-15T04:55:44;-1.70;99.90
42479;DHT22;28110;47.080;9.476;2023-02-15T04:58:09;-1.70;99.90
42479;DHT22;28110;47.080;9.476;2023-02-15T05:00:35;-1.70;99.90
42479;DHT22;28110;47.080;9.476;2023-02-15T05:03:01;-1.80;99.90
42479;DHT22;28110;47.080;9.476;2023-02-15T05:05:26;-1.80;99.90
42479;DHT22;28110;47.080;9.476;2023-02-15T05:07:52;-1.80;99.90
42479;DHT22;28110;47.080;9.476;2023-02-15T05:10:18;-1.80;99.90
42479;DHT22;28110;47.080;9.476;2023-02-15T05:12:43;-1.80;99.90
42479;DHT22;28110;47.080;9.476;2023-02-15T05:15:09;-1.90;99.90
42479;DHT22;28110;47.080;9.476;2023-02-15T05:17:36;-1.90;99.90
42479;DHT22;28110;47.080;9.476;2023-02-15T05:20:02;-1.90;99.90
42479;DHT22;28110;47.080;9.476;2023-02-15T05:22:28;-1.90;99.90
42479;DHT22;28110;47.080;9.476;2023-02-15T05:24:54;-1.90;99.90
42479;DHT22;28110;47.080;9.476;2023-02-15T05:27:38;-2.00;99.90
42479;DHT22;28110;47.080;9.476;2023-02-15T05:30:22;-2.00;99.90
42479;DHT22;28110;47.080;9.476;2023-02-15T05:32:48;-2.00;99.90
42479;DHT22;28110;47.080;9.476;2023-02-15T05:35:14;-2.00;99.90
42479;DHT22;28110;47.080;9.476;2023-02-15T05:37:40;-2.00;99.90
42479;DHT22;28110;47.080;9.476;2023-02-15T05:40:06;-2.10;99.90
42479;DHT22;28110;47.080;9.476;2023-02-15T05:42:32;-2.10;99.90
42479;DHT22;28110;47.080;9.476;2023-02-15T05:44:57;-2.10;99.90
42479;DHT22;28110;47.080;9.476;2023-02-15T05:47:23;-2.00;99.90
42479;DHT22;28110;47.080;9.476;2023-02-15T05:49:48;-1.90;99.90
42479;DHT22;28110;47.080;9.476;2023-02-15T05:52:14;-1.90;99.90
42479;DHT22;28110;47.080;9.476;2023-02-15T05:54:40;-1.90;99.90
42479;DHT22;28110;47.080;9.476;2023-02-15T05:57:05;-1.90;99.90
42479;DHT22;28110;47.080;9.476;2023-02-15T05:59:30;-1.90;99.90
42479;DHT22;28110;47.080;9.476;2023-02-15T06:01:56;-2.00;99.90
42479;DHT22;28110;47.080;9.476;2023-02-15T06:04:22;-1.90;99.90
42479;DHT22;28110;47.080;9.476;2023-02-15T06:06:47;-2.00;99.90
42479;DHT22;28110;47.080;9.476;2023-02-15T06:09:13;-1.90;99.90
42479;DHT22;28110;47.080;9.476;2023-02-15T06:11:38;-1.90;99.90
42479;DHT22;28110;47.080;9.476;2023-02-15T06:14:04;-1.90;99.90
42479;DHT22;28110;47.080;9.476;2023-02-15T06:16:29;-1.80;99.90
42479;DHT22;28110;47.080;9.476;2023-02-15T06:18:55;-1.70;99.90
42479;DHT22;28110;47.080;9.476;2023-02-15T06:21:21;-1.70;99.90
42479;DHT22;28110;47.080;9.476;2023-02-15T06:23:46;-1.80;99.90
42479;DHT22;28110;47.080;9.476;2023-02-15T06:26:12;-1.80;99.90
42479;DHT22;28110;47.080;9.476;2023-02-15T06:28:37;-1.70;99.90
42479;DHT22;28110;47.080;9.476;2023-02-15T06:31:03;-1.70;99.90
42479;DHT22;28110;47.080;9.476;2023-02-15T06:33:29;-1.70;99.90
42479;DHT22;28110;47.080;9.476;2023-02-15T06:35:59;-1.70;99.90
42479;DHT22;28110;47.080;9.476;2023-02-15T06:38:25;-1.60;99.90
42479;DHT22;28110;47.080;9.476;2023-02-15T06:40:51;-1.60;99.90
42479;DHT22;28110;47.080;9.476;2023-02-15T06:43:16;-1.60;99.90
42479;DHT22;28110;47.080;9.476;2023-02-15T06:45:42;-1.70;99.90
42479;DHT22;28110;47.080;9.476;2023-02-15T06:48:07;-1.70;99.90
42479;DHT22;28110;47.080;9.476;2023-02-15T06:50:34;-1.70;99.90
42479;DHT22;28110;47.080;9.476;2023-02-15T06:53:00;-1.60;99.90
42479;DHT22;28110;47.080;9.476;2023-02-15T06:55:25;-1.60;99.90
42479;DHT22;28110;47.080;9.476;2023-02-15T06:57:51;-1.60;99.90
42479;DHT22;28110;47.080;9.476;2023-02-15T07:00:17;-1.50;99.90
42479;DHT22;28110;47.080;9.476;2023-02-15T07:02:44;-1.60;99.90
42479;DHT22;28110;47.080;9.476;2023-02-15T07:05:10;-1.70;99.90
42479;DHT22;28110;47.080;9.476;2023-02-15T07:07:35;-1.80;99.90
42479;DHT22;28110;47.080;9.476;2023-02-15T07:10:01;-1.80;99.90
42479;DHT22;28110;47.080;9.476;2023-02-15T07:12:26;-1.70;99.90
42479;DHT22;28110;47.080;9.476;2023-02-15T07:15:12;-1.70;99.90
42479;DHT22;28110;47.080;9.476;2023-02-15T07:17:39;-1.60;99.90
42479;DHT22;28110;47.080;9.476;2023-02-15T07:20:09;-1.60;99.90
42479;DHT22;28110;47.080;9.476;2023-02-15T07:22:35;-1.60;99.90
42479;DHT22;28110;47.080;9.476;2023-02-15T07:25:03;-1.60;99.90
42479;DHT22;28110;47.080;9.476;2023-02-15T07:27:28;-1.60;99.90
42479;DHT22;28110;47.080;9.476;2023-02-15T07:29:54;-1.50;99.90
42479;DHT22;28110;47.080;9.476;2023-02-15T07:32:19;-1.50;99.90
42479;DHT22;28110;47.080;9.476;2023-02-15T07:34:45;-1.50;99.90
42479;DHT22;28110;47.080;9.476;2023-02-15T07:37:10;-1.50;99.90
42479;DHT22;28110;47.080;9.476;2023-02-15T07:39:36;-1.40;99.90
42479;DHT22;28110;47.080;9.476;2023-02-15T07:42:02;-1.50;99.90
42479;DHT22;28110;47.080;9.476;2023-02-15T07:44:27;-1.40;99.90
42479;DHT22;28110;47.080;9.476;2023-02-15T07:46:53;-1.50;99.90
42479;DHT22;28110;47.080;9.476;2023-02-15T07:49:18;-1.50;99.90
42479;DHT22;28110;47.080;9.476;2023-02-15T07:51:44;-1.60;99.90
42479;DHT22;28110;47.080;9.476;2023-02-15T07:54:09;-1.60;99.90
42479;DHT22;28110;47.080;9.476;2023-02-15T07:56:35;-1.60;99.90
42479;DHT22;28110;47.080;9.476;2023-02-15T07:59:00;-1.60;99.90
42479;DHT22;28110;47.080;9.476;2023-02-15T08:01:34;-1.60;99.90
42479;DHT22;28110;47.080;9.476;2023-02-15T08:04:01;-1.60;99.90
42479;DHT22;28110;47.080;9.476;2023-02-15T08:06:30;-1.40;99.90
42479;DHT22;28110;47.080;9.476;2023-02-15T08:08:55;-1.30;99.90
42479;DHT22;28110;47.080;9.476;2023-02-15T08:11:23;-1.20;99.90
42479;DHT22;28110;47.080;9.476;2023-02-15T08:16:40;-1.20;99.90
42479;DHT22;28110;47.080;9.476;2023-02-15T08:21:33;-1.10;99.90
42479;DHT22;28110;47.080;9.476;2023-02-15T08:23:59;-1.00;99.90
42479;DHT22;28110;47.080;9.476;2023-02-15T08:26:25;-0.80;99.90
42479;DHT22;28110;47.080;9.476;2023-02-15T08:28:52;-0.70;99.90
42479;DHT22;28110;47.080;9.476;2023-02-15T08:31:18;-0.50;99.90
42479;DHT22;28110;47.080;9.476;2023-02-15T08:33:44;-0.40;99.90
42479;DHT22;28110;47.080;9.476;2023-02-15T08:36:18;-0.20;99.90
42479;DHT22;28110;47.080;9.476;2023-02-15T08:38:44;0.10;99.90
42479;DHT22;28110;47.080;9.476;2023-02-15T08:41:15;0.30;99.90
42479;DHT22;28110;47.080;9.476;2023-02-15T08:43:42;0.40;99.90
42479;DHT22;28110;47.080;9.476;2023-02-15T08:46:11;0.50;99.90
42479;DHT22;28110;47.080;9.476;2023-02-15T08:48:37;0.70;99.90
42479;DHT22;28110;47.080;9.476;2023-02-15T08:51:08;0.90;99.90
42479;DHT22;28110;47.080;9.476;2023-02-15T08:53:39;1.10;99.90
42479;DHT22;28110;47.080;9.476;2023-02-15T08:56:06;1.20;99.90
42479;DHT22;28110;47.080;9.476;2023-02-15T08:58:32;1.30;99.90
42479;DHT22;28110;47.080;9.476;2023-02-15T09:00:58;1.40;99.90
42479;DHT22;28110;47.080;9.476;2023-02-15T09:03:24;1.50;99.90
42479;DHT22;28110;47.080;9.476;2023-02-15T09:05:50;1.60;99.90
42479;DHT22;28110;47.080;9.476;2023-02-15T09:08:16;1.70;99.90
42479;DHT22;28110;47.080;9.476;2023-02-15T09:10:41;1.80;99.90
42479;DHT22;28110;47.080;9.476;2023-02-15T09:13:07;1.80;99.90
42479;DHT22;28110;47.080;9.476;2023-02-15T09:15:33;1.80;99.90
42479;DHT22;28110;47.080;9.476;2023-02-15T09:17:58;1.90;99.90
42479;DHT22;28110;47.080;9.476;2023-02-15T09:20:31;1.80;99.90
42479;DHT22;28110;47.080;9.476;2023-02-15T09:22:57;1.90;99.90
42479;DHT22;28110;47.080;9.476;2023-02-15T09:25:22;2.00;99.90
42479;DHT22;28110;47.080;9.476;2023-02-15T09:27:48;2.00;99.90
42479;DHT22;28110;47.080;9.476;2023-02-15T09:30:13;2.10;99.90
42479;DHT22;28110;47.080;9.476;2023-02-15T09:32:40;2.20;99.90
42479;DHT22;28110;47.080;9.476;2023-02-15T09:35:05;2.30;99.90
42479;DHT22;28110;47.080;9.476;2023-02-15T09:37:31;2.40;99.90
42479;DHT22;28110;47.080;9.476;2023-02-15T09:39:57;2.50;99.90
42479;DHT22;28110;47.080;9.476;2023-02-15T09:45:15;2.70;99.90
42479;DHT22;28110;47.080;9.476;2023-02-15T09:48:14;2.80;99.90
42479;DHT22;28110;47.080;9.476;2023-02-15T09:51:13;2.90;99.90
42479;DHT22;28110;47.080;9.476;2023-02-15T10:04:03;3.20;99.90
42479;DHT22;28110;47.080;9.476;2023-02-15T10:23:08;3.80;99.90
42479;DHT22;28110;47.080;9.476;2023-02-15T10:25:43;3.90;99.90
42479;DHT22;28110;47.080;9.476;2023-02-15T10:28:17;4.00;99.90
42479;DHT22;28110;47.080;9.476;2023-02-15T10:30:52;4.00;99.90
42479;DHT22;28110;47.080;9.476;2023-02-15T10:39:32;4.30;99.90
42479;DHT22;28110;47.080;9.476;2023-02-15T10:50:34;4.40;99.90
42479;DHT22;28110;47.080;9.476;2023-02-15T11:04:48;4.90;99.90
42479;DHT22;28110;47.080;9.476;2023-02-15T11:07:27;4.90;99.90
42479;DHT22;28110;47.080;9.476;2023-02-15T11:10:05;5.00;99.90
42479;DHT22;28110;47.080;9.476;2023-02-15T11:12:33;5.10;99.90
42479;DHT22;28110;47.080;9.476;2023-02-15T11:15:10;5.20;99.90
42479;DHT22;28110;47.080;9.476;2023-02-15T11:17:45;5.20;99.90
42479;DHT22;28110;47.080;9.476;2023-02-15T11:20:24;5.20;99.90
42479;DHT22;28110;47.080;9.476;2023-02-15T11:22:51;5.30;99.90
42479;DHT22;28110;47.080;9.476;2023-02-15T11:25:30;5.30;99.90
42479;DHT22;28110;47.080;9.476;2023-02-15T11:27:57;5.30;99.90
42479;DHT22;28110;47.080;9.476;2023-02-15T11:30:28;5.40;99.90
42479;DHT22;28110;47.080;9.476;2023-02-15T11:32:57;5.40;99.90
42479;DHT22;28110;47.080;9.476;2023-02-15T11:35:42;5.50;99.90
42479;DHT22;28110;47.080;9.476;2023-02-15T11:38:21;5.50;99.90
42479;DHT22;28110;47.080;9.476;2023-02-15T11:41:05;5.60;99.90
42479;DHT22;28110;47.080;9.476;2023-02-15T11:46:03;5.70;99.90
42479;DHT22;28110;47.080;9.476;2023-02-15T11:48:31;5.70;99.90
42479;DHT22;28110;47.080;9.476;2023-02-15T11:50:57;5.70;99.90
42479;DHT22;28110;47.080;9.476;2023-02-15T11:53:23;5.80;99.90
42479;DHT22;28110;47.080;9.476;2023-02-15T11:55:53;5.80;99.90
42479;DHT22;28110;47.080;9.476;2023-02-15T12:00:50;5.90;99.90
42479;DHT22;28110;47.080;9.476;2023-02-15T12:03:22;6.00;99.90
42479;DHT22;28110;47.080;9.476;2023-02-15T12:05:56;6.00;99.90
42479;DHT22;28110;47.080;9.476;2023-02-15T12:08:34;6.10;99.90
42479;DHT22;28110;47.080;9.476;2023-02-15T12:11:17;6.00;99.90
42479;DHT22;28110;47.080;9.476;2023-02-15T12:13:55;6.10;99.90
42479;DHT22;28110;47.080;9.476;2023-02-15T12:16:21;6.10;99.90
42479;DHT22;28110;47.080;9.476;2023-02-15T12:18:47;6.10;99.90
42479;DHT22;28110;47.080;9.476;2023-02-15T12:21:23;6.10;99.90
42479;DHT22;28110;47.080;9.476;2023-02-15T12:24:20;6.20;99.90
42479;DHT22;28110;47.080;9.476;2023-02-15T12:26:57;6.30;99.90
42479;DHT22;28110;47.080;9.476;2023-02-15T12:29:26;6.40;99.90
42479;DHT22;28110;47.080;9.476;2023-02-15T12:31:52;6.40;99.90
42479;DHT22;28110;47.080;9.476;2023-02-15T12:34:22;6.40;99.90
42479;DHT22;28110;47.080;9.476;2023-02-15T12:36:53;6.50;99.90
42479;DHT22;28110;47.080;9.476;2023-02-15T12:39:28;6.50;99.90
42479;DHT22;28110;47.080;9.476;2023-02-15T12:44:27;6.60;99.90
42479;DHT22;28110;47.080;9.476;2023-02-15T12:47:04;6.70;99.90
42479;DHT22;28110;47.080;9.476;2023-02-15T12:49:37;6.80;99.90
42479;DHT22;28110;47.080;9.476;2023-02-15T12:52:23;6.80;99.90
42479;DHT22;28110;47.080;9.476;2023-02-15T12:54:50;6.90;99.90
42479;DHT22;28110;47.080;9.476;2023-02-15T12:57:31;6.90;99.90
42479;DHT22;28110;47.080;9.476;2023-02-15T13:03:01;6.90;99.90
42479;DHT22;28110;47.080;9.476;2023-02-15T13:05:36;7.00;99.90
42479;DHT22;28110;47.080;9.476;2023-02-15T13:13:30;7.10;99.90
42479;DHT22;28110;47.080;9.476;2023-02-15T13:16:03;7.10;99.90
42479;DHT22;28110;47.080;9.476;2023-02-15T13:18:35;7.20;99.90
42479;DHT22;28110;47.080;9.476;2023-02-15T13:21:11;7.30;99.90
42479;DHT22;28110;47.080;9.476;2023-02-15T13:23:38;7.40;99.90
42479;DHT22;28110;47.080;9.476;2023-02-15T13:26:05;7.30;99.90
42479;DHT22;28110;47.080;9.476;2023-02-15T13:28:47;7.30;99.90
42479;DHT22;28110;47.080;9.476;2023-02-15T13:31:19;7.30;99.90
42479;DHT22;28110;47.080;9.476;2023-02-15T13:33:53;7.30;99.90
42479;DHT22;28110;47.080;9.476;2023-02-15T13:37:01;7.30;99.90
42479;DHT22;28110;47.080;9.476;2023-02-15T13:39:47;7.30;99.90
42479;DHT22;28110;47.080;9.476;2023-02-15T13:42:36;7.30;99.90
42479;DHT22;28110;47.080;9.476;2023-02-15T14:06:57;7.50;99.90
42479;DHT22;28110;47.080;9.476;2023-02-15T14:09:40;7.50;99.90
42479;DHT22;28110;47.080;9.476;2023-02-15T14:18:07;7.60;99.90
42479;DHT22;28110;47.080;9.476;2023-02-15T14:26:00;7.40;99.90
42479;DHT22;28110;47.080;9.476;2023-02-15T14:29:16;7.40;99.90
42479;DHT22;28110;47.080;9.476;2023-02-15T14:31:13;7.40;99.90
42479;DHT22;28110;47.080;9.476;2023-02-15T14:33:47;7.50;99.90
42479;DHT22;28110;47.080;9.476;2023-02-15T14:36:18;7.40;99.90
42479;DHT22;28110;47.080;9.476;2023-02-15T14:38:54;7.30;99.90
42479;DHT22;28110;47.080;9.476;2023-02-15T14:41:30;7.30;99.90
42479;DHT22;28110;47.080;9.476;2023-02-15T14:46:52;7.30;99.90
42479;DHT22;28110;47.080;9.476;2023-02-15T14:49:30;7.30;99.90
42479;DHT22;28110;47.080;9.476;2023-02-15T14:52:02;7.30;99.90
42479;DHT22;28110;47.080;9.476;2023-02-15T14:59:57;7.50;99.90
42479;DHT22;28110;47.080;9.476;2023-02-15T15:02:39;7.40;99.90
42479;DHT22;28110;47.080;9.476;2023-02-15T15:12:43;7.30;99.90
42479;DHT22;28110;47.080;9.476;2023-02-15T15:15:34;7.30;99.90
42479;DHT22;28110;47.080;9.476;2023-02-15T15:18:06;7.20;99.90
42479;DHT22;28110;47.080;9.476;2023-02-15T15:20:46;7.10;99.90
42479;DHT22;28110;47.080;9.476;2023-02-15T15:25:52;7.00;99.90
42479;DHT22;28110;47.080;9.476;2023-02-15T15:45:13;6.40;99.90
42479;DHT22;28110;47.080;9.476;2023-02-15T15:47:54;6.30;99.90
42479;DHT22;28110;47.080;9.476;2023-02-15T15:50:23;6.30;99.90
42479;DHT22;28110;47.080;9.476;2023-02-15T15:52:54;6.20;99.90
42479;DHT22;28110;47.080;9.476;2023-02-15T15:55:26;6.10;99.90
42479;DHT22;28110;47.080;9.476;2023-02-15T15:57:56;6.10;99.90
42479;DHT22;28110;47.080;9.476;2023-02-15T16:00:29;6.00;99.90
42479;DHT22;28110;47.080;9.476;2023-02-15T16:02:56;6.00;99.90
42479;DHT22;28110;47.080;9.476;2023-02-15T16:05:22;5.90;99.90
42479;DHT22;28110;47.080;9.476;2023-02-15T16:07:48;5.90;99.90
42479;DHT22;28110;47.080;9.476;2023-02-15T16:10:25;5.90;99.90
42479;DHT22;28110;47.080;9.476;2023-02-15T16:12:52;5.80;99.90
42479;DHT22;28110;47.080;9.476;2023-02-15T16:15:20;5.70;99.90
42479;DHT22;28110;47.080;9.476;2023-02-15T16:17:54;5.70;99.90
42479;DHT22;28110;47.080;9.476;2023-02-15T16:20:35;5.70;99.90
42479;DHT22;28110;47.080;9.476;2023-02-15T16:29:00;5.50;99.90
42479;DHT22;28110;47.080;9.476;2023-02-15T16:31:26;5.40;99.90
42479;DHT22;28110;47.080;9.476;2023-02-15T16:33:55;5.40;99.90
42479;DHT22;28110;47.080;9.476;2023-02-15T16:36:26;5.40;99.90
42479;DHT22;28110;47.080;9.476;2023-02-15T16:41:28;5.30;99.90
42479;DHT22;28110;47.080;9.476;2023-02-15T16:43:57;5.30;99.90
42479;DHT22;28110;47.080;9.476;2023-02-15T16:46:39;5.20;99.90
42479;DHT22;28110;47.080;9.476;2023-02-15T16:49:22;5.10;99.90
42479;DHT22;28110;47.080;9.476;2023-02-15T16:51:56;5.10;99.90
42479;DHT22;28110;47.080;9.476;2023-02-15T16:54:24;5.10;99.90
42479;DHT22;28110;47.080;9.476;2023-02-15T16:56:51;5.00;99.90
42479;DHT22;28110;47.080;9.476;2023-02-15T17:01:48;4.90;99.90
42479;DHT22;28110;47.080;9.476;2023-02-15T17:04:27;4.80;99.90
42479;DHT22;28110;47.080;9.476;2023-02-15T17:09:23;4.80;99.90
42479;DHT22;28110;47.080;9.476;2023-02-15T17:11:51;4.70;99.90
42479;DHT22;28110;47.080;9.476;2023-02-15T17:14:21;4.70;99.90
42479;DHT22;28110;47.080;9.476;2023-02-15T17:17:01;4.70;99.90
42479;DHT22;28110;47.080;9.476;2023-02-15T17:19:33;4.60;99.90
42479;DHT22;28110;47.080;9.476;2023-02-15T17:22:06;4.60;99.90
42479;DHT22;28110;47.080;9.476;2023-02-15T17:24:38;4.60;99.90
42479;DHT22;28110;47.080;9.476;2023-02-15T17:29:44;4.60;99.90
42479;DHT22;28110;47.080;9.476;2023-02-15T17:32:23;4.60;99.90
42479;DHT22;28110;47.080;9.476;2023-02-15T17:35:20;4.50;99.90
42479;DHT22;28110;47.080;9.476;2023-02-15T17:37:48;4.50;99.90
42479;DHT22;28110;47.080;9.476;2023-02-15T17:40:21;4.40;99.90
42479;DHT22;28110;47.080;9.476;2023-02-15T17:42:48;4.40;99.90
42479;DHT22;28110;47.080;9.476;2023-02-15T17:45:14;4.40;99.90
42479;DHT22;28110;47.080;9.476;2023-02-15T17:47:39;4.40;99.90
42479;DHT22;28110;47.080;9.476;2023-02-15T17:50:06;4.40;99.90
42479;DHT22;28110;47.080;9.476;2023-02-15T17:52:32;4.40;99.90
42479;DHT22;28110;47.080;9.476;2023-02-15T17:54:58;4.30;99.90
42479;DHT22;28110;47.080;9.476;2023-02-15T17:57:44;4.30;99.90
42479;DHT22;28110;47.080;9.476;2023-02-15T18:00:13;4.30;99.90
42479;DHT22;28110;47.080;9.476;2023-02-15T18:02:57;4.20;99.90
42479;DHT22;28110;47.080;9.476;2023-02-15T18:05:41;4.20;99.90
42479;DHT22;28110;47.080;9.476;2023-02-15T18:08:27;4.20;99.90
42479;DHT22;28110;47.080;9.476;2023-02-15T18:11:11;4.10;99.90
42479;DHT22;28110;47.080;9.476;2023-02-15T18:13:55;4.10;99.90
42479;DHT22;28110;47.080;9.476;2023-02-15T18:16:26;4.10;99.90
42479;DHT22;28110;47.080;9.476;2023-02-15T18:18:52;4.10;99.90
42479;DHT22;28110;47.080;9.476;2023-02-15T18:21:18;4.00;99.90
42479;DHT22;28110;47.080;9.476;2023-02-15T18:23:44;4.00;99.90
42479;DHT22;28110;47.080;9.476;2023-02-15T18:26:17;4.00;99.90
42479;DHT22;28110;47.080;9.476;2023-02-15T18:28:43;4.00;99.90
42479;DHT22;28110;47.080;9.476;2023-02-15T18:31:09;3.90;99.90
42479;DHT22;28110;47.080;9.476;2023-02-15T18:33:52;3.80;99.90
42479;DHT22;28110;47.080;9.476;2023-02-15T18:36:25;3.80;99.90
42479;DHT22;28110;47.080;9.476;2023-02-15T18:38:52;3.70;99.90
42479;DHT22;28110;47.080;9.476;2023-02-15T18:41:19;3.70;99.90
42479;DHT22;28110;47.080;9.476;2023-02-15T18:43:48;3.70;99.90
42479;DHT22;28110;47.080;9.476;2023-02-15T18:46:15;3.60;99.90
42479;DHT22;28110;47.080;9.476;2023-02-15T18:48:41;3.60;99.90
42479;DHT22;28110;47.080;9.476;2023-02-15T18:51:19;3.60;99.90
42479;DHT22;28110;47.080;9.476;2023-02-15T18:53:46;3.50;99.90
42479;DHT22;28110;47.080;9.476;2023-02-15T18:56:18;3.40;99.90
42479;DHT22;28110;47.080;9.476;2023-02-15T18:58:44;3.40;99.90
42479;DHT22;28110;47.080;9.476;2023-02-15T19:01:16;3.30;99.90
42479;DHT22;28110;47.080;9.476;2023-02-15T19:03:51;3.30;99.90
42479;DHT22;28110;47.080;9.476;2023-02-15T19:06:18;3.30;99.90
42479;DHT22;28110;47.080;9.476;2023-02-15T19:08:46;3.30;99.90
42479;DHT22;28110;47.080;9.476;2023-02-15T19:11:22;3.30;99.90